sensor_id;sensor_type;location;lat;lon;timestamp;pressure;altitude;pressure_sealevel;temperature;humidity
86402;BME280;77047;51.340;9.552;2024-03-08T00:01:35;99119.33;;;1.73;34.31
86402;BME280;77047;51.340;9.552;2024-03-08T00:04:00;99120.33;;;1.72;34.29
86402;BME280;77047;51.340;9.552;2024-03-08T00:06:25;99116.58;;;2.19;34.23
86402;BME280;77047;51.340;9.552;2024-03-08T00:08:51;99115.71;;;1.78;34.22
86402;BME280;77047;51.340;9.552;2024-03-08T00:11:17;99114.97;;;2.13;34.23
86402;BME280;77047;51.340;9.552;2024-03-08T00:13:42;99111.98;;;1.71;34.20
86402;BME280;77047;51.340;9.552;2024-03-08T00:16:07;99110.84;;;2.26;34.13
86402;BME280;77047;51.340;9.552;2024-03-08T00:18:33;99109.44;;;1.87;34.09
86402;BME280;77047;51.340;9.552;2024-03-08T00:20:57;99109.18;;;2.44;33.97
86402;BME280;77047;51.340;9.552;2024-03-08T00:23:26;99106.51;;;1.90;34.03
86402;BME280;77047;51.340;9.552;2024-03-08T00:25:49;99103.26;;;2.26;34.03
86402;BME280;77047;51.340;9.552;2024-03-08T00:28:14;99102.44;;;1.77;34.04
86402;BME280;77047;51.340;9.552;2024-03-08T00:30:39;99101.76;;;2.08;34.11
86402;BME280;77047;51.340;9.552;2024-03-08T00:33:05;99099.09;;;2.33;34.32
86402;BME280;77047;51.340;9.552;2024-03-08T00:35:30;99097.23;;;1.80;34.33
86402;BME280;77047;51.340;9.552;2024-03-08T00:37:55;99092.56;;;1.69;34.48
86402;BME280;77047;51.340;9.552;2024-03-08T00:40:21;99092.73;;;2.05;34.51
86402;BME280;77047;51.340;9.552;2024-03-08T00:42:46;99087.97;;;2.02;34.59
86402;BME280;77047;51.340;9.552;2024-03-08T00:45:11;99084.39;;;1.49;34.64
86402;BME280;77047;51.340;9.552;2024-03-08T00:47:36;99081.02;;;1.45;34.67
86402;BME280;77047;51.340;9.552;2024-03-08T00:50:01;99079.97;;;1.38;34.70
86402;BME280;77047;51.340;9.552;2024-03-08T00:52:26;99079.29;;;1.83;34.76
86402;BME280;77047;51.340;9.552;2024-03-08T00:54:51;99078.03;;;1.87;34.77
86402;BME280;77047;51.340;9.552;2024-03-08T00:57:17;99073.77;;;1.50;34.67
86402;BME280;77047;51.340;9.552;2024-03-08T00:59:43;99069.36;;;1.87;34.73
86402;BME280;77047;51.340;9.552;2024-03-08T01:02:09;99064.50;;;1.34;34.71
86402;BME280;77047;51.340;9.552;2024-03-08T01:04:34;99059.37;;;1.68;34.75
86402;BME280;77047;51.340;9.552;2024-03-08T01:06:59;99054.38;;;1.58;34.83
86402;BME280;77047;51.340;9.552;2024-03-08T01:09:24;99051.97;;;1.47;34.91
86402;BME280;77047;51.340;9.552;2024-03-08T01:11:53;99047.49;;;1.47;35.01
86402;BME280;77047;51.340;9.552;2024-03-08T01:14:16;99043.35;;;1.43;35.07
86402;BME280;77047;51.340;9.552;2024-03-08T01:16:40;99040.83;;;1.25;35.10
86402;BME280;77047;51.340;9.552;2024-03-08T01:19:06;99035.63;;;1.21;35.23
86402;BME280;77047;51.340;9.552;2024-03-08T01:21:31;99034.87;;;1.09;35.28
86402;BME280;77047;51.340;9.552;2024-03-08T01:23:56;99028.61;;;0.63;35.25
86402;BME280;77047;51.340;9.552;2024-03-08T01:26:22;99026.22;;;1.58;35.15
86402;BME280;77047;51.340;9.552;2024-03-08T01:28:49;99028.75;;;1.09;35.40
86402;BME280;77047;51.340;9.552;2024-03-08T01:31:13;99023.28;;;1.28;35.31
86402;BME280;77047;51.340;9.552;2024-03-08T01:33:39;99018.45;;;1.21;35.60
86402;BME280;77047;51.340;9.552;2024-03-08T01:36:05;99014.89;;;0.81;35.49
86402;BME280;77047;51.340;9.552;2024-03-08T01:38:30;99015.35;;;1.24;35.40
86402;BME280;77047;51.340;9.552;2024-03-08T01:40:55;99013.88;;;1.81;35.29
86402;BME280;77047;51.340;9.552;2024-03-08T01:43:21;99008.52;;;0.92;35.29
86402;BME280;77047;51.340;9.552;2024-03-08T01:45:46;99005.75;;;1.32;35.27
86402;BME280;77047;51.340;9.552;2024-03-08T01:48:12;99004.95;;;1.30;35.30
86402;BME280;77047;51.340;9.552;2024-03-08T01:50:37;98998.74;;;1.21;35.44
86402;BME280;77047;51.340;9.552;2024-03-08T01:53:02;98994.83;;;0.64;35.48
86402;BME280;77047;51.340;9.552;2024-03-08T01:55:28;98993.72;;;1.24;35.43
86402;BME280;77047;51.340;9.552;2024-03-08T01:57:53;98988.35;;;0.69;35.37
86402;BME280;77047;51.340;9.552;2024-03-08T02:00:23;98985.04;;;1.27;35.32
86402;BME280;77047;51.340;9.552;2024-03-08T02:02:45;98981.07;;;1.29;35.29
86402;BME280;77047;51.340;9.552;2024-03-08T02:05:10;98978.38;;;0.89;35.22
86402;BME280;77047;51.340;9.552;2024-03-08T02:07:35;98978.83;;;1.78;35.20
86402;BME280;77047;51.340;9.552;2024-03-08T02:10:00;98970.95;;;0.80;35.40
86402;BME280;77047;51.340;9.552;2024-03-08T02:12:25;98969.51;;;1.67;35.27
86402;BME280;77047;51.340;9.552;2024-03-08T02:14:51;98967.57;;;1.56;35.51
86402;BME280;77047;51.340;9.552;2024-03-08T02:17:16;98967.48;;;1.16;35.32
86402;BME280;77047;51.340;9.552;2024-03-08T02:19:41;98965.48;;;1.18;35.35
86402;BME280;77047;51.340;9.552;2024-03-08T02:22:07;98962.99;;;0.73;35.32
86402;BME280;77047;51.340;9.552;2024-03-08T02:24:32;98958.91;;;1.06;35.44
86402;BME280;77047;51.340;9.552;2024-03-08T02:26:58;98956.51;;;1.37;35.57
86402;BME280;77047;51.340;9.552;2024-03-08T02:29:23;98952.02;;;0.83;35.62
86402;BME280;77047;51.340;9.552;2024-03-08T02:31:51;98952.51;;;1.01;35.67
86402;BME280;77047;51.340;9.552;2024-03-08T02:34:14;98951.85;;;1.38;35.54
86402;BME280;77047;51.340;9.552;2024-03-08T02:36:40;98946.58;;;0.81;35.63
86402;BME280;77047;51.340;9.552;2024-03-08T02:39:05;98938.82;;;0.80;35.70
86402;BME280;77047;51.340;9.552;2024-03-08T02:41:31;98939.30;;;0.76;35.72
86402;BME280;77047;51.340;9.552;2024-03-08T02:43:57;98932.96;;;1.23;35.71
86402;BME280;77047;51.340;9.552;2024-03-08T02:46:23;98930.53;;;1.21;35.80
86402;BME280;77047;51.340;9.552;2024-03-08T02:48:48;98929.67;;;0.36;35.80
86402;BME280;77047;51.340;9.552;2024-03-08T02:51:13;98932.37;;;0.92;35.62
86402;BME280;77047;51.340;9.552;2024-03-08T02:53:39;98925.99;;;0.77;35.55
86402;BME280;77047;51.340;9.552;2024-03-08T02:56:05;98926.24;;;0.73;35.64
86402;BME280;77047;51.340;9.552;2024-03-08T02:58:30;98925.98;;;0.76;35.68
86402;BME280;77047;51.340;9.552;2024-03-08T03:00:56;98926.08;;;1.24;35.64
86402;BME280;77047;51.340;9.552;2024-03-08T03:03:21;98926.38;;;1.37;35.61
86402;BME280;77047;51.340;9.552;2024-03-08T03:05:47;98926.12;;;0.58;35.47
86402;BME280;77047;51.340;9.552;2024-03-08T03:08:12;98923.90;;;0.66;35.33
86402;BME280;77047;51.340;9.552;2024-03-08T03:10:37;98921.48;;;1.05;35.36
86402;BME280;77047;51.340;9.552;2024-03-08T03:13:02;98917.98;;;1.58;35.33
86402;BME280;77047;51.340;9.552;2024-03-08T03:15:30;98916.64;;;0.63;35.41
86402;BME280;77047;51.340;9.552;2024-03-08T03:17:52;98913.87;;;1.49;35.37
86402;BME280;77047;51.340;9.552;2024-03-08T03:20:19;98912.73;;;1.46;35.34
86402;BME280;77047;51.340;9.552;2024-03-08T03:22:43;98909.46;;;1.47;35.31
86402;BME280;77047;51.340;9.552;2024-03-08T03:25:09;98908.64;;;1.31;35.40
86402;BME280;77047;51.340;9.552;2024-03-08T03:27:34;98906.98;;;0.73;35.52
86402;BME280;77047;51.340;9.552;2024-03-08T03:29:59;98908.75;;;1.26;35.44
86402;BME280;77047;51.340;9.552;2024-03-08T03:32:24;98908.92;;;1.29;35.41
86402;BME280;77047;51.340;9.552;2024-03-08T03:34:50;98908.06;;;1.25;35.39
86402;BME280;77047;51.340;9.552;2024-03-08T03:37:16;98909.66;;;1.24;35.42
86402;BME280;77047;51.340;9.552;2024-03-08T03:39:41;98906.85;;;0.31;35.50
86402;BME280;77047;51.340;9.552;2024-03-08T03:42:07;98909.05;;;1.35;35.40
86402;BME280;77047;51.340;9.552;2024-03-08T03:44:32;98910.64;;;0.99;35.35
86402;BME280;77047;51.340;9.552;2024-03-08T03:46:57;98908.23;;;0.96;35.35
86402;BME280;77047;51.340;9.552;2024-03-08T03:49:23;98907.06;;;1.30;35.40
86402;BME280;77047;51.340;9.552;2024-03-08T03:51:49;98904.67;;;0.79;35.43
86402;BME280;77047;51.340;9.552;2024-03-08T03:54:14;98902.69;;;0.67;35.54
86402;BME280;77047;51.340;9.552;2024-03-08T03:56:40;98902.77;;;0.65;35.63
86402;BME280;77047;51.340;9.552;2024-03-08T03:59:05;98898.92;;;1.17;35.63
86402;BME280;77047;51.340;9.552;2024-03-08T04:01:31;98897.57;;;0.75;35.56
86402;BME280;77047;51.340;9.552;2024-03-08T04:03:56;98897.39;;;1.14;35.63
86402;BME280;77047;51.340;9.552;2024-03-08T04:06:22;98893.47;;;1.12;35.63
86402;BME280;77047;51.340;9.552;2024-03-08T04:08:47;98893.55;;;1.03;35.67
86402;BME280;77047;51.340;9.552;2024-03-08T04:11:13;98890.09;;;0.86;35.70
86402;BME280;77047;51.340;9.552;2024-03-08T04:13:39;98888.23;;;0.78;35.89
86402;BME280;77047;51.340;9.552;2024-03-08T04:16:05;98885.83;;;0.46;35.81
86402;BME280;77047;51.340;9.552;2024-03-08T04:18:30;98882.67;;;0.92;35.79
86402;BME280;77047;51.340;9.552;2024-03-08T04:20:55;98887.24;;;0.76;35.87
86402;BME280;77047;51.340;9.552;2024-03-08T04:23:21;98886.96;;;0.76;35.89
86402;BME280;77047;51.340;9.552;2024-03-08T04:25:46;98888.91;;;0.27;35.92
86402;BME280;77047;51.340;9.552;2024-03-08T04:28:12;98884.86;;;-0.23;35.99
86402;BME280;77047;51.340;9.552;2024-03-08T04:30:38;98879.73;;;0.64;36.04
86402;BME280;77047;51.340;9.552;2024-03-08T04:33:03;98880.91;;;0.55;36.11
86402;BME280;77047;51.340;9.552;2024-03-08T04:35:28;98877.65;;;0.49;36.15
86402;BME280;77047;51.340;9.552;2024-03-08T04:37:53;98878.93;;;0.48;36.18
86402;BME280;77047;51.340;9.552;2024-03-08T04:40:18;98877.16;;;0.52;36.11
86402;BME280;77047;51.340;9.552;2024-03-08T04:42:43;98872.37;;;0.49;36.25
86402;BME280;77047;51.340;9.552;2024-03-08T04:45:09;98870.98;;;0.50;36.17
86402;BME280;77047;51.340;9.552;2024-03-08T04:47:34;98869.60;;;0.08;36.12
86402;BME280;77047;51.340;9.552;2024-03-08T04:49:59;98867.66;;;0.56;36.19
86402;BME280;77047;51.340;9.552;2024-03-08T04:52:24;98864.29;;;0.53;36.17
86402;BME280;77047;51.340;9.552;2024-03-08T04:54:50;98859.37;;;0.55;36.16
86402;BME280;77047;51.340;9.552;2024-03-08T04:57:15;98860.06;;;0.49;36.19
86402;BME280;77047;51.340;9.552;2024-03-08T04:59:41;98854.48;;;0.51;36.24
86402;BME280;77047;51.340;9.552;2024-03-08T05:02:07;98854.70;;;0.92;36.28
86402;BME280;77047;51.340;9.552;2024-03-08T05:04:32;98857.96;;;0.14;36.27
86402;BME280;77047;51.340;9.552;2024-03-08T05:06:58;98854.47;;;0.05;36.32
86402;BME280;77047;51.340;9.552;2024-03-08T05:09:23;98853.93;;;0.52;36.29
86402;BME280;77047;51.340;9.552;2024-03-08T05:11:49;98850.96;;;0.37;36.40
86402;BME280;77047;51.340;9.552;2024-03-08T05:14:15;98848.37;;;0.70;36.52
86402;BME280;77047;51.340;9.552;2024-03-08T05:16:40;98849.48;;;0.50;36.41
86402;BME280;77047;51.340;9.552;2024-03-08T05:19:06;98852.43;;;0.58;36.38
86402;BME280;77047;51.340;9.552;2024-03-08T05:21:31;98851.48;;;0.71;36.25
86402;BME280;77047;51.340;9.552;2024-03-08T05:23:56;98852.32;;;0.50;36.09
86402;BME280;77047;51.340;9.552;2024-03-08T05:26:22;98851.65;;;1.00;36.04
86402;BME280;77047;51.340;9.552;2024-03-08T05:28:47;98850.73;;;0.52;35.97
86402;BME280;77047;51.340;9.552;2024-03-08T05:31:19;98849.60;;;0.53;36.01
86402;BME280;77047;51.340;9.552;2024-03-08T05:33:38;98851.03;;;0.54;35.93
86402;BME280;77047;51.340;9.552;2024-03-08T05:36:04;98852.40;;;0.10;35.90
86402;BME280;77047;51.340;9.552;2024-03-08T05:38:29;98852.62;;;0.46;35.93
86402;BME280;77047;51.340;9.552;2024-03-08T05:40:55;98850.42;;;0.38;35.94
86402;BME280;77047;51.340;9.552;2024-03-08T05:43:22;98850.99;;;0.79;36.09
86402;BME280;77047;51.340;9.552;2024-03-08T05:45:45;98850.65;;;0.77;36.05
86402;BME280;77047;51.340;9.552;2024-03-08T05:48:10;98850.51;;;0.80;35.93
86402;BME280;77047;51.340;9.552;2024-03-08T05:50:36;98847.48;;;0.73;35.97
86402;BME280;77047;51.340;9.552;2024-03-08T05:53:01;98847.49;;;0.07;36.19
86402;BME280;77047;51.340;9.552;2024-03-08T05:55:26;98852.04;;;0.64;36.20
86402;BME280;77047;51.340;9.552;2024-03-08T05:57:52;98850.11;;;0.54;36.19
86402;BME280;77047;51.340;9.552;2024-03-08T06:00:18;98846.57;;;0.51;36.25
86402;BME280;77047;51.340;9.552;2024-03-08T06:02:42;98845.27;;;0.57;36.28
86402;BME280;77047;51.340;9.552;2024-03-08T06:05:09;98843.92;;;0.60;36.22
86402;BME280;77047;51.340;9.552;2024-03-08T06:07:33;98846.11;;;0.66;36.24
86402;BME280;77047;51.340;9.552;2024-03-08T06:09:59;98846.58;;;0.70;36.22
86402;BME280;77047;51.340;9.552;2024-03-08T06:12:24;98849.28;;;0.50;36.41
86402;BME280;77047;51.340;9.552;2024-03-08T06:14:50;98848.32;;;0.61;36.34
86402;BME280;77047;51.340;9.552;2024-03-08T06:17:15;98849.00;;;0.67;36.38
86402;BME280;77047;51.340;9.552;2024-03-08T06:19:40;98851.14;;;0.70;36.40
86402;BME280;77047;51.340;9.552;2024-03-08T06:22:05;98850.72;;;0.82;36.42
86402;BME280;77047;51.340;9.552;2024-03-08T06:24:31;98849.22;;;0.79;36.35
86402;BME280;77047;51.340;9.552;2024-03-08T06:26:57;98847.25;;;0.66;36.36
86402;BME280;77047;51.340;9.552;2024-03-08T06:29:22;98847.34;;;1.26;35.77
86402;BME280;77047;51.340;9.552;2024-03-08T06:31:48;98845.59;;;1.31;35.54
86402;BME280;77047;51.340;9.552;2024-03-08T06:34:13;98839.03;;;1.29;35.59
86402;BME280;77047;51.340;9.552;2024-03-08T06:36:38;98842.29;;;1.75;35.55
86402;BME280;77047;51.340;9.552;2024-03-08T06:39:04;98842.67;;;1.59;35.67
86402;BME280;77047;51.340;9.552;2024-03-08T06:41:29;98840.27;;;1.29;35.75
86402;BME280;77047;51.340;9.552;2024-03-08T06:43:54;98837.15;;;1.48;35.74
86402;BME280;77047;51.340;9.552;2024-03-08T06:46:19;98839.11;;;1.58;35.63
86402;BME280;77047;51.340;9.552;2024-03-08T06:48:44;98845.28;;;1.78;35.52
86402;BME280;77047;51.340;9.552;2024-03-08T06:51:10;98839.30;;;1.82;35.51
86402;BME280;77047;51.340;9.552;2024-03-08T06:53:35;98842.43;;;2.09;35.26
86402;BME280;77047;51.340;9.552;2024-03-08T06:56:00;98841.21;;;2.13;35.27
86402;BME280;77047;51.340;9.552;2024-03-08T06:58:26;98844.91;;;2.32;35.29
86402;BME280;77047;51.340;9.552;2024-03-08T07:00:51;98841.42;;;2.53;35.11
86402;BME280;77047;51.340;9.552;2024-03-08T07:03:16;98841.80;;;1.95;35.00
86402;BME280;77047;51.340;9.552;2024-03-08T07:05:41;98841.96;;;2.22;34.78
86402;BME280;77047;51.340;9.552;2024-03-08T07:08:07;98842.26;;;2.31;34.55
86402;BME280;77047;51.340;9.552;2024-03-08T07:10:32;98845.47;;;2.56;34.61
86402;BME280;77047;51.340;9.552;2024-03-08T07:12:58;98846.19;;;2.77;34.52
86402;BME280;77047;51.340;9.552;2024-03-08T07:15:23;98846.86;;;2.71;34.32
86402;BME280;77047;51.340;9.552;2024-03-08T07:17:49;98845.27;;;3.43;34.06
86402;BME280;77047;51.340;9.552;2024-03-08T07:20:15;98845.33;;;3.30;33.86
86402;BME280;77047;51.340;9.552;2024-03-08T07:22:40;98846.83;;;4.03;33.96
86402;BME280;77047;51.340;9.552;2024-03-08T07:25:06;98843.82;;;3.87;33.18
86402;BME280;77047;51.340;9.552;2024-03-08T07:27:31;98842.64;;;3.45;33.39
86402;BME280;77047;51.340;9.552;2024-03-08T07:29:56;98844.71;;;3.79;33.53
86402;BME280;77047;51.340;9.552;2024-03-08T07:32:22;98839.68;;;4.14;33.15
86402;BME280;77047;51.340;9.552;2024-03-08T07:34:48;98836.74;;;4.51;33.09
86402;BME280;77047;51.340;9.552;2024-03-08T07:37:13;98835.90;;;4.90;32.82
86402;BME280;77047;51.340;9.552;2024-03-08T07:39:39;98835.29;;;5.71;32.35
86402;BME280;77047;51.340;9.552;2024-03-08T07:42:04;98833.15;;;6.56;31.38
86402;BME280;77047;51.340;9.552;2024-03-08T07:44:29;98828.19;;;7.72;30.90
86402;BME280;77047;51.340;9.552;2024-03-08T07:46:54;98824.94;;;9.26;29.38
86402;BME280;77047;51.340;9.552;2024-03-08T07:49:19;98826.93;;;10.65;27.29
86402;BME280;77047;51.340;9.552;2024-03-08T07:51:46;98824.31;;;11.27;26.45
86402;BME280;77047;51.340;9.552;2024-03-08T12:52:54;98445.64;;;8.66;32.22
86402;BME280;77047;51.340;9.552;2024-03-08T12:55:19;98436.93;;;9.67;30.89
86402;BME280;77047;51.340;9.552;2024-03-08T12:57:45;98434.08;;;11.32;30.60
86402;BME280;77047;51.340;9.552;2024-03-08T13:00:11;98441.64;;;11.25;29.22
86402;BME280;77047;51.340;9.552;2024-03-08T13:02:35;98440.11;;;11.72;29.04
86402;BME280;77047;51.340;9.552;2024-03-08T13:05:00;98430.81;;;11.54;29.63
86402;BME280;77047;51.340;9.552;2024-03-08T13:07:26;98433.16;;;11.28;28.42
86402;BME280;77047;51.340;9.552;2024-03-08T13:09:52;98437.31;;;10.91;29.75
86402;BME280;77047;51.340;9.552;2024-03-08T13:12:17;98425.79;;;11.19;28.39
86402;BME280;77047;51.340;9.552;2024-03-08T13:14:43;98423.71;;;11.36;27.21
86402;BME280;77047;51.340;9.552;2024-03-08T13:17:09;98422.22;;;11.08;26.52
86402;BME280;77047;51.340;9.552;2024-03-08T13:19:35;98415.02;;;11.47;26.77
86402;BME280;77047;51.340;9.552;2024-03-08T13:22:00;98414.72;;;11.51;25.90
86402;BME280;77047;51.340;9.552;2024-03-08T13:24:26;98411.58;;;11.44;25.93
86402;BME280;77047;51.340;9.552;2024-03-08T13:26:51;98406.47;;;11.14;26.24
86402;BME280;77047;51.340;9.552;2024-03-08T13:29:17;98400.95;;;10.86;25.60
86402;BME280;77047;51.340;9.552;2024-03-08T13:31:42;98399.43;;;10.64;26.33
86402;BME280;77047;51.340;9.552;2024-03-08T13:34:08;98400.04;;;11.32;25.70
86402;BME280;77047;51.340;9.552;2024-03-08T13:36:34;98394.49;;;11.31;25.55
86402;BME280;77047;51.340;9.552;2024-03-08T13:38:59;98398.59;;;11.20;25.49
86402;BME280;77047;51.340;9.552;2024-03-08T13:41:24;98393.22;;;11.09;25.33
86402;BME280;77047;51.340;9.552;2024-03-08T13:43:50;98391.95;;;10.73;25.21
86402;BME280;77047;51.340;9.552;2024-03-08T13:46:15;98391.98;;;10.59;26.52
86402;BME280;77047;51.340;9.552;2024-03-08T13:48:41;98386.59;;;11.07;25.96
86402;BME280;77047;51.340;9.552;2024-03-08T13:51:07;98380.48;;;10.78;26.10
86402;BME280;77047;51.340;9.552;2024-03-08T13:53:32;98376.07;;;10.91;26.53
86402;BME280;77047;51.340;9.552;2024-03-08T13:55:57;98369.13;;;10.58;26.11
86402;BME280;77047;51.340;9.552;2024-03-08T13:58:23;98368.16;;;11.54;25.71
86402;BME280;77047;51.340;9.552;2024-03-08T14:00:48;98362.72;;;11.39;26.38
86402;BME280;77047;51.340;9.552;2024-03-08T14:03:14;98355.07;;;11.18;26.19
86402;BME280;77047;51.340;9.552;2024-03-08T14:05:39;98345.72;;;10.45;26.55
86402;BME280;77047;51.340;9.552;2024-03-08T14:08:06;98344.27;;;11.15;25.97
86402;BME280;77047;51.340;9.552;2024-03-08T14:10:31;98339.04;;;10.39;26.17
86402;BME280;77047;51.340;9.552;2024-03-08T14:12:56;98333.84;;;10.35;26.46
86402;BME280;77047;51.340;9.552;2024-03-08T14:15:22;98323.38;;;9.97;27.13
86402;BME280;77047;51.340;9.552;2024-03-08T14:17:53;98326.23;;;10.77;26.56
86402;BME280;77047;51.340;9.552;2024-03-08T14:20:13;98321.10;;;10.37;26.86
86402;BME280;77047;51.340;9.552;2024-03-08T14:22:37;98318.70;;;10.62;26.40
86402;BME280;77047;51.340;9.552;2024-03-08T14:25:03;98315.84;;;10.65;26.44
86402;BME280;77047;51.340;9.552;2024-03-08T14:27:29;98314.94;;;10.75;26.51
86402;BME280;77047;51.340;9.552;2024-03-08T14:29:54;98311.52;;;10.73;26.55
86402;BME280;77047;51.340;9.552;2024-03-08T14:32:19;98312.76;;;10.76;26.51
86402;BME280;77047;51.340;9.552;2024-03-08T14:34:45;98309.57;;;10.38;27.17
86402;BME280;77047;51.340;9.552;2024-03-08T14:37:10;98313.24;;;10.24;27.40
86402;BME280;77047;51.340;9.552;2024-03-08T14:39:36;98306.91;;;9.90;27.49
86402;BME280;77047;51.340;9.552;2024-03-08T14:42:01;98301.60;;;9.72;26.93
86402;BME280;77047;51.340;9.552;2024-03-08T14:44:27;98295.67;;;10.32;27.74
86402;BME280;77047;51.340;9.552;2024-03-08T14:46:53;98294.04;;;9.93;27.36
86402;BME280;77047;51.340;9.552;2024-03-08T14:49:18;98292.03;;;10.06;27.41
86402;BME280;77047;51.340;9.552;2024-03-08T14:51:43;98293.17;;;9.53;26.97
86402;BME280;77047;51.340;9.552;2024-03-08T14:54:09;98286.71;;;9.30;27.34
86402;BME280;77047;51.340;9.552;2024-03-08T14:56:35;98286.54;;;9.09;27.70
86402;BME280;77047;51.340;9.552;2024-03-08T14:59:00;98283.51;;;8.72;28.07
86402;BME280;77047;51.340;9.552;2024-03-08T15:01:26;98276.27;;;8.66;28.23
86402;BME280;77047;51.340;9.552;2024-03-08T15:03:51;98270.65;;;8.66;28.48
86402;BME280;77047;51.340;9.552;2024-03-08T15:06:16;98264.22;;;8.19;28.48
86402;BME280;77047;51.340;9.552;2024-03-08T15:08:41;98267.18;;;8.15;28.49
86402;BME280;77047;51.340;9.552;2024-03-08T15:11:07;98264.49;;;8.24;29.15
86402;BME280;77047;51.340;9.552;2024-03-08T15:13:33;98260.69;;;7.68;29.12
86402;BME280;77047;51.340;9.552;2024-03-08T15:15:58;98258.53;;;7.63;29.13
86402;BME280;77047;51.340;9.552;2024-03-08T15:18:24;98256.87;;;7.00;29.49
86402;BME280;77047;51.340;9.552;2024-03-08T15:20:49;98255.82;;;7.26;29.46
86402;BME280;77047;51.340;9.552;2024-03-08T15:23:15;98253.39;;;7.21;29.47
86402;BME280;77047;51.340;9.552;2024-03-08T15:25:40;98245.70;;;7.06;29.78
86402;BME280;77047;51.340;9.552;2024-03-08T15:28:06;98241.49;;;6.92;29.90
86402;BME280;77047;51.340;9.552;2024-03-08T15:30:31;98245.28;;;6.93;29.99
86402;BME280;77047;51.340;9.552;2024-03-08T15:32:57;98238.90;;;7.18;30.55
86402;BME280;77047;51.340;9.552;2024-03-08T15:35:22;98235.29;;;6.67;30.29
86402;BME280;77047;51.340;9.552;2024-03-08T15:37:48;98237.20;;;7.00;30.41
86402;BME280;77047;51.340;9.552;2024-03-08T15:40:14;98234.82;;;6.37;30.73
86402;BME280;77047;51.340;9.552;2024-03-08T15:42:40;98230.12;;;6.36;30.78
86402;BME280;77047;51.340;9.552;2024-03-08T15:45:06;98236.20;;;5.98;30.47
86402;BME280;77047;51.340;9.552;2024-03-08T15:47:31;98232.53;;;6.70;30.67
86402;BME280;77047;51.340;9.552;2024-03-08T15:49:56;98230.56;;;6.35;30.98
86402;BME280;77047;51.340;9.552;2024-03-08T15:52:22;98232.84;;;6.43;31.27
86402;BME280;77047;51.340;9.552;2024-03-08T15:54:47;98231.84;;;6.03;31.28
86402;BME280;77047;51.340;9.552;2024-03-08T15:57:13;98236.87;;;6.06;31.41
86402;BME280;77047;51.340;9.552;2024-03-08T15:59:38;98233.02;;;5.95;31.28
86402;BME280;77047;51.340;9.552;2024-03-08T16:02:03;98230.55;;;6.33;31.45
86402;BME280;77047;51.340;9.552;2024-03-08T16:04:28;98227.88;;;6.59;31.58
86402;BME280;77047;51.340;9.552;2024-03-08T16:06:54;98224.10;;;6.24;31.70
86402;BME280;77047;51.340;9.552;2024-03-08T16:09:19;98227.98;;;6.38;31.86
86402;BME280;77047;51.340;9.552;2024-03-08T16:11:45;98226.70;;;6.18;32.04
86402;BME280;77047;51.340;9.552;2024-03-08T16:14:11;98221.54;;;5.97;31.88
86402;BME280;77047;51.340;9.552;2024-03-08T16:16:38;98222.28;;;5.52;32.37
86402;BME280;77047;51.340;9.552;2024-03-08T16:19:02;98225.18;;;5.19;32.19
86402;BME280;77047;51.340;9.552;2024-03-08T16:21:27;98217.83;;;6.15;31.96
86402;BME280;77047;51.340;9.552;2024-03-08T16:23:53;98219.94;;;6.03;31.91
86402;BME280;77047;51.340;9.552;2024-03-08T16:26:19;98223.01;;;5.87;32.06
86402;BME280;77047;51.340;9.552;2024-03-08T16:28:44;98219.00;;;5.30;32.33
86402;BME280;77047;51.340;9.552;2024-03-08T16:31:10;98213.04;;;5.80;32.48
86402;BME280;77047;51.340;9.552;2024-03-08T16:33:35;98210.66;;;5.32;32.32
86402;BME280;77047;51.340;9.552;2024-03-08T16:36:00;98204.45;;;5.10;32.62
86402;BME280;77047;51.340;9.552;2024-03-08T16:38:25;98207.87;;;5.03;32.69
86402;BME280;77047;51.340;9.552;2024-03-08T16:40:51;98203.22;;;5.21;32.90
86402;BME280;77047;51.340;9.552;2024-03-08T16:43:17;98200.31;;;4.89;33.08
86402;BME280;77047;51.340;9.552;2024-03-08T16:45:42;98200.25;;;4.64;33.24
86402;BME280;77047;51.340;9.552;2024-03-08T16:48:08;98194.50;;;4.52;33.59
86402;BME280;77047;51.340;9.552;2024-03-08T16:50:33;98183.96;;;4.70;33.68
86402;BME280;77047;51.340;9.552;2024-03-08T16:52:59;98189.03;;;4.34;33.70
86402;BME280;77047;51.340;9.552;2024-03-08T16:55:24;98188.51;;;5.05;33.66
86402;BME280;77047;51.340;9.552;2024-03-08T16:57:50;98187.62;;;4.38;33.63
86402;BME280;77047;51.340;9.552;2024-03-08T17:00:17;98182.31;;;4.62;33.85
86402;BME280;77047;51.340;9.552;2024-03-08T17:02:41;98184.32;;;4.87;34.10
86402;BME280;77047;51.340;9.552;2024-03-08T17:05:07;98181.49;;;3.78;34.37
86402;BME280;77047;51.340;9.552;2024-03-08T17:07:32;98175.95;;;4.20;34.22
86402;BME280;77047;51.340;9.552;2024-03-08T17:09:57;98175.82;;;4.02;34.50
86402;BME280;77047;51.340;9.552;2024-03-08T17:12:23;98171.08;;;4.46;34.64
86402;BME280;77047;51.340;9.552;2024-03-08T17:14:48;98171.70;;;4.44;34.58
86402;BME280;77047;51.340;9.552;2024-03-08T17:17:14;98171.38;;;4.59;34.68
86402;BME280;77047;51.340;9.552;2024-03-08T17:19:39;98171.82;;;4.73;34.45
86402;BME280;77047;51.340;9.552;2024-03-08T17:22:04;98175.05;;;3.82;34.63
86402;BME280;77047;51.340;9.552;2024-03-08T17:24:30;98170.61;;;3.72;34.63
86402;BME280;77047;51.340;9.552;2024-03-08T17:26:55;98168.91;;;4.09;34.69
86402;BME280;77047;51.340;9.552;2024-03-08T17:29:21;98171.67;;;3.49;34.91
86402;BME280;77047;51.340;9.552;2024-03-08T17:31:46;98177.74;;;4.26;34.99
86402;BME280;77047;51.340;9.552;2024-03-08T17:34:11;98173.72;;;4.18;35.16
86402;BME280;77047;51.340;9.552;2024-03-08T17:36:37;98173.82;;;3.79;35.10
86402;BME280;77047;51.340;9.552;2024-03-08T17:39:03;98172.02;;;4.20;35.06
86402;BME280;77047;51.340;9.552;2024-03-08T17:41:28;98167.87;;;4.07;35.29
86402;BME280;77047;51.340;9.552;2024-03-08T17:43:53;98166.57;;;3.83;35.60
86402;BME280;77047;51.340;9.552;2024-03-08T17:46:19;98164.79;;;3.63;35.86
86402;BME280;77047;51.340;9.552;2024-03-08T17:48:45;98160.99;;;3.91;36.01
86402;BME280;77047;51.340;9.552;2024-03-08T17:51:10;98159.14;;;3.26;36.25
86402;BME280;77047;51.340;9.552;2024-03-08T17:53:35;98160.77;;;3.69;36.29
86402;BME280;77047;51.340;9.552;2024-03-08T17:56:02;98158.52;;;2.96;36.59
86402;BME280;77047;51.340;9.552;2024-03-08T17:58:27;98162.17;;;3.81;36.67